Time;durP1;ratioP1;P1;durP2;ratioP2;P2;SDS_P1;SDS_P2;PMS_P1;PMS_P2;Temp;Humidity;BMP_temperature;BMP_pressure;BME280_temperature;BME280_humidity;BME280_pressure;Samples;Min_cycle;Max_cycle;Signal;HPM_P1;HPM_P2
2021/10/22 00:00:41;;;;;;;5.90;1.40;;;5.90;99.90;;;;;;4984390;28;20496;-50
2021/10/22 00:03:07;;;;;;;5.40;1.55;;;5.90;99.90;;;;;;4986030;28;20037;-47
2021/10/22 00:05:33;;;;;;;3.88;1.67;;;5.80;99.90;;;;;;4985983;28;20474;-47
2021/10/22 00:08:00;;;;;;;5.60;1.73;;;5.90;99.90;;;;;;4985117;28;20122;-46
2021/10/22 00:10:26;;;;;;;7.47;1.30;;;5.90;99.90;;;;;;4983769;28;20122;-49
2021/10/22 00:12:51;;;;;;;6.85;1.73;;;5.90;99.90;;;;;;4983363;28;20109;-48
2021/10/22 00:15:17;;;;;;;11.10;1.80;;;5.90;99.90;;;;;;4985034;28;20026;-48
2021/10/22 00:17:43;;;;;;;9.82;1.90;;;5.90;99.90;;;;;;4985657;28;20486;-46
2021/10/22 00:20:09;;;;;;;6.53;1.40;;;5.90;99.90;;;;;;4984393;28;20026;-48
2021/10/22 00:22:36;;;;;;;9.07;1.42;;;6.00;99.90;;;;;;4985490;28;20029;-51
2021/10/22 00:25:03;;;;;;;6.18;1.38;;;5.90;99.90;;;;;;4985339;28;20030;-49
2021/10/22 00:27:29;;;;;;;7.68;1.80;;;5.90;99.90;;;;;;4985744;28;20398;-48
2021/10/22 00:29:54;;;;;;;8.63;1.45;;;6.00;99.90;;;;;;4985074;28;20042;-50
2021/10/22 00:32:20;;;;;;;5.30;1.05;;;5.90;99.90;;;;;;4985112;28;20034;-47
2021/10/22 00:34:45;;;;;;;5.30;1.50;;;5.90;99.90;;;;;;5021860;22;20056;-47
2021/10/22 00:37:11;;;;;;;4.88;1.08;;;6.00;99.90;;;;;;5021983;28;20021;-49
2021/10/22 00:39:36;;;;;;;8.35;2.10;;;6.00;99.90;;;;;;5046804;28;20033;-51
2021/10/22 00:42:03;;;;;;;5.18;1.02;;;6.00;99.90;;;;;;5047582;28;20053;-50
2021/10/22 00:44:29;;;;;;;8.20;1.63;;;6.00;99.90;;;;;;5047285;28;20033;-52
2021/10/22 00:46:56;;;;;;;6.65;1.63;;;5.90;99.90;;;;;;5047376;28;20032;-47
2021/10/22 00:49:21;;;;;;;9.10;1.30;;;6.00;99.90;;;;;;5047661;28;20112;-46
2021/10/22 00:51:47;;;;;;;3.70;1.45;;;6.00;99.90;;;;;;5047733;28;20100;-50
2021/10/22 00:54:13;;;;;;;11.57;1.98;;;5.90;99.90;;;;;;5047397;28;20032;-52
2021/10/22 00:56:39;;;;;;;6.68;1.88;;;6.00;99.90;;;;;;5047562;28;20512;-53
2021/10/22 00:59:06;;;;;;;10.40;2.17;;;6.00;99.90;;;;;;5045422;28;20032;-49
2021/10/22 01:01:38;;;;;;;7.55;1.67;;;6.00;99.90;;;;;;5044901;28;20580;-50
2021/10/22 01:04:03;;;;;;;6.35;2.15;;;6.00;99.90;;;;;;5046079;28;20435;-50
2021/10/22 01:06:29;;;;;;;5.18;1.75;;;6.00;99.90;;;;;;5049976;28;20083;-50
2021/10/22 01:08:56;;;;;;;6.60;1.77;;;6.00;99.90;;;;;;5033302;28;20029;-49
2021/10/22 01:11:22;;;;;;;9.88;1.92;;;6.00;99.90;;;;;;5051263;28;20751;-50
2021/10/22 01:13:48;;;;;;;8.98;1.52;;;6.00;99.90;;;;;;5051383;28;20025;-50
2021/10/22 01:16:14;;;;;;;8.85;1.40;;;6.00;99.90;;;;;;5051193;28;20548;-50
2021/10/22 01:18:40;;;;;;;4.90;1.08;;;6.00;99.90;;;;;;5050889;28;20057;-50
2021/10/22 01:21:06;;;;;;;10.30;1.50;;;6.00;99.90;;;;;;5051223;28;20033;-50
2021/10/22 01:23:32;;;;;;;6.20;1.75;;;6.00;99.90;;;;;;5051311;28;20025;-49
2021/10/22 01:25:58;;;;;;;5.20;1.05;;;6.00;99.90;;;;;;5033117;28;20021;-51
2021/10/22 01:28:25;;;;;;;6.72;1.17;;;6.00;99.90;;;;;;5050862;28;20036;-50
2021/10/22 01:30:51;;;;;;;6.70;1.52;;;6.00;99.90;;;;;;5050445;28;20033;-49
2021/10/22 01:33:18;;;;;;;7.72;1.08;;;6.00;99.90;;;;;;5051006;28;20036;-50
2021/10/22 01:35:45;;;;;;;8.90;1.98;;;6.00;99.90;;;;;;5041120;28;20063;-49
2021/10/22 01:38:13;;;;;;;9.50;1.77;;;6.00;99.90;;;;;;5050629;28;20124;-50
2021/10/22 01:40:38;;;;;;;6.70;1.48;;;6.00;99.90;;;;;;5050807;28;20029;-52
2021/10/22 01:43:04;;;;;;;4.78;1.58;;;6.00;99.90;;;;;;5050163;28;20136;-48
2021/10/22 01:45:30;;;;;;;4.00;1.25;;;6.00;99.90;;;;;;5049437;28;20029;-51
2021/10/22 01:47:56;;;;;;;7.28;2.08;;;6.00;99.90;;;;;;5050501;28;20025;-49
2021/10/22 01:50:21;;;;;;;8.45;1.50;;;6.00;99.90;;;;;;5050487;28;20241;-50
2021/10/22 01:52:47;;;;;;;5.28;1.27;;;6.00;99.90;;;;;;5050448;28;20033;-49
2021/10/22 01:55:16;;;;;;;4.35;0.82;;;6.00;99.90;;;;;;5050542;28;20021;-50
2021/10/22 01:57:42;;;;;;;2.67;1.30;;;6.00;99.90;;;;;;5049767;28;20154;-50
2021/10/22 02:00:08;;;;;;;4.70;1.23;;;6.00;99.90;;;;;;5049813;28;20063;-47
2021/10/22 02:02:34;;;;;;;4.78;0.98;;;6.00;99.90;;;;;;5050206;28;20048;-50
2021/10/22 02:04:59;;;;;;;4.75;1.30;;;6.00;99.90;;;;;;5050483;28;20056;-52
2021/10/22 02:07:25;;;;;;;6.28;1.30;;;6.00;99.90;;;;;;5049715;28;20151;-50
2021/10/22 02:09:50;;;;;;;2.55;0.77;;;6.00;99.90;;;;;;5049809;28;20029;-55
2021/10/22 02:12:16;;;;;;;3.58;0.90;;;6.00;99.90;;;;;;5050078;28;20033;-51
2021/10/22 02:14:42;;;;;;;3.30;1.15;;;6.00;99.90;;;;;;5049711;28;20064;-49
2021/10/22 02:17:07;;;;;;;4.88;1.10;;;6.10;99.90;;;;;;5048937;28;20082;-52
2021/10/22 02:19:33;;;;;;;3.92;1.10;;;6.10;99.90;;;;;;5049408;28;20025;-50
2021/10/22 02:21:59;;;;;;;6.30;1.02;;;6.10;99.90;;;;;;5039303;28;20072;-50
2021/10/22 02:24:25;;;;;;;4.70;0.80;;;6.10;99.90;;;;;;5044314;28;20070;-50
2021/10/22 02:26:50;;;;;;;3.58;0.80;;;6.10;99.90;;;;;;5049643;28;20028;-49
2021/10/22 02:29:16;;;;;;;4.40;1.02;;;6.10;99.90;;;;;;5049429;28;20108;-52
2021/10/22 02:31:42;;;;;;;3.80;1.48;;;6.10;99.90;;;;;;5032204;28;20029;-50
2021/10/22 02:34:08;;;;;;;4.68;0.70;;;6.10;99.90;;;;;;5049356;28;20040;-47
2021/10/22 02:36:33;;;;;;;6.03;1.30;;;6.10;99.90;;;;;;5032650;28;20028;-52
2021/10/22 02:38:59;;;;;;;4.30;1.00;;;6.10;99.90;;;;;;5049646;28;20394;-48
2021/10/22 02:41:24;;;;;;;5.43;1.13;;;6.10;99.90;;;;;;5048913;28;20064;-50
2021/10/22 02:43:50;;;;;;;3.33;0.73;;;6.10;99.90;;;;;;5031195;28;20025;-51
2021/10/22 02:46:16;;;;;;;4.03;0.88;;;6.10;99.90;;;;;;5048991;28;20025;-50
2021/10/22 02:48:43;;;;;;;2.63;0.60;;;6.10;99.90;;;;;;5049242;28;20028;-48
2021/10/22 02:51:08;;;;;;;3.55;1.35;;;6.10;99.90;;;;;;5048848;28;20739;-47
2021/10/22 02:53:34;;;;;;;2.22;0.80;;;6.20;99.90;;;;;;5049056;28;20047;-50
2021/10/22 02:56:00;;;;;;;3.38;0.80;;;6.20;99.90;;;;;;5048837;28;20028;-49
2021/10/22 02:58:25;;;;;;;8.02;0.65;;;6.20;99.90;;;;;;5048083;28;20500;-50
2021/10/22 03:00:51;;;;;;;5.32;1.10;;;6.20;99.90;;;;;;5048191;28;20036;-53
2021/10/22 03:03:16;;;;;;;3.10;1.02;;;6.20;99.90;;;;;;5050129;28;20432;-49
2021/10/22 03:05:42;;;;;;;4.70;1.35;;;6.10;99.90;;;;;;5031978;28;20056;-49
2021/10/22 03:08:08;;;;;;;5.68;1.40;;;6.20;99.90;;;;;;5049314;28;20036;-49
2021/10/22 03:10:35;;;;;;;7.68;1.00;;;6.20;99.90;;;;;;5048745;28;20071;-49
2021/10/22 03:13:01;;;;;;;5.00;1.45;;;6.20;99.90;;;;;;5048634;28;20094;-49
2021/10/22 03:15:27;;;;;;;7.00;0.90;;;6.20;99.90;;;;;;5049200;28;20032;-49
2021/10/22 03:17:54;;;;;;;7.05;0.93;;;6.20;99.90;;;;;;5048836;28;20044;-49
2021/10/22 03:20:20;;;;;;;4.05;0.85;;;6.20;99.90;;;;;;5030758;28;20650;-50
2021/10/22 03:22:46;;;;;;;4.15;1.35;;;6.20;99.90;;;;;;5048093;28;20037;-48
2021/10/22 03:25:12;;;;;;;3.25;0.93;;;6.20;99.90;;;;;;5030751;28;20100;-49
2021/10/22 03:27:37;;;;;;;3.90;1.08;;;6.20;99.90;;;;;;5048470;28;20040;-50
2021/10/22 03:30:04;;;;;;;4.13;0.77;;;6.20;99.90;;;;;;5048211;28;20039;-47
2021/10/22 03:32:32;;;;;;;7.13;1.08;;;6.20;99.90;;;;;;5048579;28;20036;-51
2021/10/22 03:35:02;;;;;;;5.35;0.82;;;6.20;99.90;;;;;;5054626;28;20499;-49
2021/10/22 03:37:27;;;;;;;3.83;0.80;;;6.20;99.90;;;;;;5053335;28;20044;-49
2021/10/22 03:39:53;;;;;;;7.18;1.20;;;6.20;99.90;;;;;;5048337;28;20025;-50
2021/10/22 03:42:19;;;;;;;2.67;0.65;;;6.20;99.90;;;;;;5048038;28;20040;-52
2021/10/22 03:44:44;;;;;;;5.68;1.15;;;6.20;99.90;;;;;;5030453;28;20025;-50
2021/10/22 03:47:10;;;;;;;8.20;0.88;;;6.20;99.90;;;;;;5047733;28;20048;-50
2021/10/22 03:49:35;;;;;;;5.70;1.55;;;6.20;99.90;;;;;;5048010;28;20025;-51
2021/10/22 03:52:01;;;;;;;5.05;1.20;;;6.20;99.90;;;;;;5047942;28;20033;-51
2021/10/22 03:54:27;;;;;;;11.93;1.30;;;6.20;99.90;;;;;;5047951;28;20036;-49
2021/10/22 03:56:52;;;;;;;7.95;1.45;;;6.20;99.90;;;;;;5048150;28;20067;-49
2021/10/22 03:59:18;;;;;;;9.07;1.80;;;6.20;99.90;;;;;;5047561;28;20040;-49
2021/10/22 04:01:44;;;;;;;9.70;2.03;;;6.20;99.90;;;;;;5047748;28;20408;-49
2021/10/22 04:04:10;;;;;;;2.40;0.90;;;6.10;99.90;;;;;;5048202;28;20489;-49
2021/10/22 04:06:35;;;;;;;2.70;1.20;;;6.10;99.90;;;;;;5047847;28;20032;-49
2021/10/22 04:09:01;;;;;;;5.45;1.52;;;6.10;99.90;;;;;;5029923;28;20021;-49
2021/10/22 04:11:26;;;;;;;7.93;1.77;;;6.10;99.90;;;;;;5048224;28;20029;-48
2021/10/22 04:13:52;;;;;;;6.25;1.30;;;6.10;99.90;;;;;;5047981;28;20033;-50
2021/10/22 04:16:18;;;;;;;4.05;1.10;;;6.10;99.90;;;;;;5048451;28;20060;-50
2021/10/22 04:18:43;;;;;;;4.03;1.58;;;6.10;99.90;;;;;;5048133;28;20104;-50
2021/10/22 04:21:10;;;;;;;6.18;1.33;;;6.10;99.90;;;;;;5047764;28;20029;-50
2021/10/22 04:23:35;;;;;;;4.95;1.70;;;6.10;99.90;;;;;;5047959;28;20033;-52
2021/10/22 04:26:01;;;;;;;12.55;1.52;;;6.10;99.90;;;;;;5047116;28;20723;-51
2021/10/22 04:28:27;;;;;;;7.90;1.73;;;6.10;99.90;;;;;;5026990;28;20036;-53
2021/10/22 04:30:52;;;;;;;8.27;2.13;;;6.10;99.90;;;;;;5045468;28;20083;-49
2021/10/22 04:33:18;;;;;;;10.85;1.63;;;6.00;99.90;;;;;;5047296;28;20029;-54
2021/10/22 04:35:44;;;;;;;4.47;1.50;;;6.00;99.90;;;;;;5059406;28;20028;-46
2021/10/22 04:40:51;;;;;;;5.45;1.75;;;6.10;99.90;;;;;;5048801;28;20021;-51
2021/10/22 04:43:17;;;;;;;6.05;1.38;;;6.10;99.90;;;;;;5032968;28;20033;-48
2021/10/22 04:45:47;;;;;;;4.68;1.27;;;6.20;99.90;;;;;;5051495;28;20056;-50
2021/10/22 04:48:13;;;;;;;9.50;2.03;;;6.20;99.90;;;;;;5034185;28;20017;-49
2021/10/22 04:50:48;;;;;;;10.38;1.83;;;6.10;99.90;;;;;;5050895;28;20070;-49
2021/10/22 04:53:14;;;;;;;8.10;1.60;;;6.20;99.90;;;;;;5031878;28;20030;-49
2021/10/22 04:55:40;;;;;;;5.65;1.50;;;6.20;99.90;;;;;;5032365;28;20078;-48
2021/10/22 04:58:06;;;;;;;8.65;1.95;;;6.20;99.90;;;;;;5049970;28;20072;-49
2021/10/22 05:00:32;;;;;;;6.85;2.05;;;6.20;99.90;;;;;;5050572;28;20029;-51
2021/10/22 05:02:58;;;;;;;6.75;2.03;;;6.20;99.90;;;;;;5051174;28;20047;-51
2021/10/22 05:05:23;;;;;;;7.07;1.45;;;6.30;99.90;;;;;;5050172;28;20061;-49
2021/10/22 05:07:49;;;;;;;14.35;2.47;;;6.30;99.90;;;;;;5051206;28;20742;-49
2021/10/22 05:10:15;;;;;;;5.85;1.30;;;6.20;99.90;;;;;;5032578;28;20025;-51
2021/10/22 05:12:41;;;;;;;7.90;1.77;;;6.20;99.90;;;;;;5051295;28;20421;-46
2021/10/22 05:15:08;;;;;;;7.68;2.45;;;6.20;99.90;;;;;;5050977;28;20083;-52
2021/10/22 05:17:34;;;;;;;5.65;2.17;;;6.20;99.90;;;;;;5032793;28;20043;-49
2021/10/22 05:20:01;;;;;;;9.63;1.95;;;6.20;99.90;;;;;;5050238;28;20025;-50
2021/10/22 05:22:27;;;;;;;8.43;2.97;;;6.30;99.90;;;;;;5032793;28;20028;-49
2021/10/22 05:24:52;;;;;;;9.82;2.45;;;6.30;99.90;;;;;;5032588;28;20013;-50
2021/10/22 05:27:18;;;;;;;13.73;2.60;;;6.20;99.90;;;;;;5050705;28;20035;-51
2021/10/22 05:29:44;;;;;;;10.70;1.55;;;6.30;99.90;;;;;;5050245;28;20025;-52
2021/10/22 05:32:10;;;;;;;12.20;1.95;;;6.20;99.90;;;;;;5050726;28;20108;-48
2021/10/22 05:34:35;;;;;;;7.18;1.92;;;6.20;99.90;;;;;;5050588;28;20037;-48
2021/10/22 05:37:02;;;;;;;6.10;1.58;;;6.30;99.90;;;;;;5032157;28;20055;-49
2021/10/22 05:39:28;;;;;;;5.75;1.60;;;6.30;99.90;;;;;;5032555;28;20107;-49
2021/10/22 05:41:53;;;;;;;9.70;1.40;;;6.30;99.90;;;;;;5050139;28;20115;-49
2021/10/22 05:44:19;;;;;;;12.95;2.20;;;6.20;99.90;;;;;;5050187;28;20457;-49
2021/10/22 05:46:46;;;;;;;6.13;2.03;;;6.30;99.90;;;;;;5050376;28;20437;-51
2021/10/22 05:49:11;;;;;;;4.78;1.58;;;6.30;99.90;;;;;;5049596;28;20033;-48
2021/10/22 05:51:37;;;;;;;8.52;1.67;;;6.30;99.90;;;;;;5042434;28;20124;-49
2021/10/22 05:54:03;;;;;;;6.63;1.73;;;6.30;99.90;;;;;;5049877;28;20112;-49
2021/10/22 05:56:28;;;;;;;9.98;2.13;;;6.30;99.90;;;;;;5049760;28;20450;-51
2021/10/22 05:58:55;;;;;;;8.23;1.73;;;6.30;99.90;;;;;;5049075;28;20036;-51
2021/10/22 06:01:21;;;;;;;6.78;1.80;;;6.40;99.90;;;;;;5031454;28;20086;-50
2021/10/22 06:03:47;;;;;;;8.38;2.90;;;6.30;99.90;;;;;;5049308;28;20021;-51
2021/10/22 06:06:12;;;;;;;7.07;2.25;;;6.30;99.90;;;;;;5031444;28;20377;-46
2021/10/22 06:08:38;;;;;;;6.82;1.83;;;6.30;99.90;;;;;;5049474;28;20504;-48
2021/10/22 06:11:10;;;;;;;7.47;2.03;;;6.30;99.90;;;;;;5049075;28;20099;-50
2021/10/22 06:13:36;;;;;;;3.85;1.52;;;6.30;99.90;;;;;;5049134;28;20048;-50
2021/10/22 06:16:01;;;;;;;11.18;2.33;;;6.30;99.90;;;;;;5030799;28;20102;-48
2021/10/22 06:18:27;;;;;;;8.82;1.80;;;6.40;99.90;;;;;;5048499;28;20044;-50
2021/10/22 06:21:20;;;;;;;10.38;2.22;;;6.30;99.90;;;;;;5048698;28;20108;-47
2021/10/22 06:23:54;;;;;;;11.83;2.60;;;6.40;99.90;;;;;;5041441;28;20106;-48
2021/10/22 06:26:21;;;;;;;3.63;2.25;;;6.40;99.90;;;;;;5049621;28;20677;-53
2021/10/22 06:28:47;;;;;;;12.20;2.42;;;6.40;99.90;;;;;;5049026;28;20408;-48
2021/10/22 06:31:13;;;;;;;8.18;2.35;;;6.40;99.90;;;;;;5048606;28;20033;-49
2021/10/22 06:33:39;;;;;;;6.57;2.05;;;6.50;99.90;;;;;;5049305;28;20036;-48
2021/10/22 06:36:06;;;;;;;7.40;2.25;;;6.50;99.90;;;;;;5074976;22;20049;-86
2021/10/22 06:38:32;;;;;;;11.35;3.05;;;6.50;99.90;;;;;;5091062;28;20027;-86
2021/10/22 06:40:58;;;;;;;6.80;1.83;;;6.50;99.90;;;;;;5071857;28;20029;-85
2021/10/22 06:43:24;;;;;;;9.50;1.85;;;6.50;99.90;;;;;;5077425;28;20047;-86
2021/10/22 06:45:51;;;;;;;8.05;1.63;;;6.50;99.90;;;;;;5090472;28;20020;-83
2021/10/22 06:48:17;;;;;;;4.80;1.70;;;6.60;99.90;;;;;;5090682;28;20016;-86
2021/10/22 06:50:46;;;;;;;8.02;2.20;;;6.60;99.90;;;;;;5098067;28;20027;-82
2021/10/22 06:53:12;;;;;;;6.60;2.17;;;6.60;99.90;;;;;;5096699;28;20024;-84
2021/10/22 06:55:38;;;;;;;7.32;1.80;;;6.60;99.90;;;;;;5076802;28;20081;-85
2021/10/22 06:58:04;;;;;;;13.27;2.70;;;6.60;99.90;;;;;;5070886;28;20028;-83
2021/10/22 07:00:31;;;;;;;3.78;1.35;;;6.70;99.90;;;;;;5071634;28;20055;-86
2021/10/22 07:02:57;;;;;;;10.57;2.10;;;6.70;99.90;;;;;;5072099;28;20503;-84
2021/10/22 07:08:14;;;;;;;4.22;1.45;;;6.80;99.90;;;;;;5040268;28;20096;-83
2021/10/22 07:10:40;;;;;;;8.57;2.05;;;6.80;99.90;;;;;;5079274;28;20028;-85
2021/10/22 07:13:06;;;;;;;7.57;1.98;;;6.80;99.90;;;;;;5072440;28;20025;-85
2021/10/22 07:15:32;;;;;;;3.72;1.80;;;6.80;99.90;;;;;;5068752;28;20021;-84
2021/10/22 07:18:00;;;;;;;7.53;1.63;;;6.80;99.90;;;;;;5070184;28;20400;-85
2021/10/22 07:20:26;;;;;;;7.47;1.92;;;6.80;99.90;;;;;;5070796;28;20035;-85
2021/10/22 07:22:55;;;;;;;8.60;1.80;;;6.80;99.90;;;;;;5073525;28;20504;-83
2021/10/22 07:25:23;;;;;;;8.80;2.30;;;6.90;99.90;;;;;;5072656;28;20120;-83
2021/10/22 07:27:50;;;;;;;12.30;2.25;;;6.90;99.90;;;;;;5073062;28;20024;-82
2021/10/22 07:30:16;;;;;;;9.35;1.92;;;6.80;99.90;;;;;;5072778;28;20040;-84
2021/10/22 07:32:43;;;;;;;8.77;2.78;;;6.80;99.90;;;;;;5072725;28;20032;-83
2021/10/22 07:35:10;;;;;;;7.90;2.42;;;6.90;99.90;;;;;;5073344;28;20078;-84
2021/10/22 07:37:36;;;;;;;7.53;1.42;;;6.90;99.90;;;;;;5075875;28;20028;-84
2021/10/22 07:40:04;;;;;;;8.80;1.95;;;6.90;99.90;;;;;;5076061;28;20093;-85
2021/10/22 07:42:30;;;;;;;7.95;2.10;;;6.90;99.90;;;;;;5090414;28;20017;-85
2021/10/22 07:44:57;;;;;;;9.82;2.58;;;7.00;99.90;;;;;;5073431;28;20024;-83
2021/10/22 07:47:24;;;;;;;9.68;2.08;;;7.00;99.90;;;;;;5072770;28;20028;-83
2021/10/22 07:49:51;;;;;;;7.97;1.90;;;7.00;99.90;;;;;;5072793;28;20024;-84
2021/10/22 07:52:21;;;;;;;8.32;1.83;;;7.00;99.90;;;;;;5089840;28;20020;-84
2021/10/22 07:54:47;;;;;;;9.52;1.75;;;7.10;99.90;;;;;;5073122;28;20028;-83
2021/10/22 07:57:12;;;;;;;11.68;2.03;;;7.10;99.90;;;;;;5078691;28;20016;-85
2021/10/22 07:59:38;;;;;;;8.43;1.58;;;7.10;99.90;;;;;;5092759;28;20024;-85
2021/10/22 08:02:14;;;;;;;4.45;1.65;;;7.20;99.90;;;;;;5073650;28;20672;-85
2021/10/22 08:04:43;;;;;;;6.85;1.73;;;7.20;99.90;;;;;;5091387;28;20051;-84
2021/10/22 08:07:09;;;;;;;6.00;1.60;;;7.30;99.90;;;;;;5073160;28;20029;-83
2021/10/22 08:09:34;;;;;;;5.10;2.25;;;7.30;99.90;;;;;;5073471;28;20020;-86
2021/10/22 08:12:00;;;;;;;6.13;1.73;;;7.40;99.90;;;;;;5073432;28;20020;-84
2021/10/22 08:14:25;;;;;;;9.40;1.52;;;7.40;99.90;;;;;;5072023;28;20557;-85
2021/10/22 08:16:51;;;;;;;5.90;2.45;;;7.50;99.90;;;;;;5071598;28;20165;-83
2021/10/22 08:19:18;;;;;;;4.30;1.98;;;7.60;99.90;;;;;;5072776;28;20025;-83
2021/10/22 08:24:10;;;;;;;7.72;1.70;;;8.00;99.90;;;;;;5072761;28;20108;-81
2021/10/22 08:26:37;;;;;;;6.65;2.10;;;8.10;99.90;;;;;;5082585;28;20041;-83
2021/10/22 08:29:03;;;;;;;5.70;1.58;;;8.10;99.90;;;;;;5067924;28;20040;-84
2021/10/22 08:31:29;;;;;;;10.45;1.75;;;8.10;99.90;;;;;;5086411;28;20036;-83
2021/10/22 08:33:54;;;;;;;8.13;1.33;;;8.00;99.90;;;;;;5076134;28;20031;-84
2021/10/22 08:36:20;;;;;;;5.28;2.00;;;7.90;99.90;;;;;;5069102;28;20070;-84
2021/10/22 08:38:45;;;;;;;4.07;2.00;;;7.90;99.90;;;;;;5071004;28;20044;-82
2021/10/22 08:41:15;;;;;;;9.45;1.65;;;7.90;99.90;;;;;;5068062;28;20653;-84
2021/10/22 08:43:40;;;;;;;7.45;1.45;;;7.80;99.90;;;;;;5081180;28;20056;-83
2021/10/22 08:46:11;;;;;;;7.15;2.13;;;7.80;99.90;;;;;;5075233;28;20056;-83
2021/10/22 08:48:37;;;;;;;5.10;1.40;;;7.70;99.90;;;;;;5080250;28;20101;-86
2021/10/22 08:51:03;;;;;;;5.05;1.40;;;7.70;99.90;;;;;;5088527;28;20112;-86
2021/10/22 08:53:29;;;;;;;11.38;2.10;;;7.70;99.90;;;;;;5078162;28;20052;-86
2021/10/22 08:55:56;;;;;;;4.68;1.75;;;7.60;99.90;;;;;;5068638;28;20040;-84
2021/10/22 08:58:23;;;;;;;6.43;1.65;;;7.60;99.90;;;;;;5068474;28;20032;-83
2021/10/22 09:00:49;;;;;;;3.13;1.05;;;7.50;99.90;;;;;;5067899;28;20092;-84
2021/10/22 09:03:20;;;;;;;7.13;1.58;;;7.50;99.90;;;;;;5068078;28;20047;-83
2021/10/22 09:06:00;;;;;;;5.43;1.73;;;7.50;99.90;;;;;;5068278;28;20111;-84
2021/10/22 09:08:32;;;;;;;6.82;1.98;;;7.50;99.90;;;;;;5077820;28;20030;-85
2021/10/22 09:10:59;;;;;;;5.93;2.08;;;7.40;99.90;;;;;;5101963;28;20028;-84
2021/10/22 09:13:33;;;;;;;7.00;1.40;;;7.40;99.90;;;;;;5077542;28;20032;-86
2021/10/22 09:16:00;;;;;;;8.85;2.03;;;7.40;99.90;;;;;;5068203;28;20024;-85
2021/10/22 09:18:29;;;;;;;7.30;1.27;;;7.40;99.90;;;;;;5088255;28;20044;-86
2021/10/22 09:21:00;;;;;;;6.75;1.63;;;7.40;99.90;;;;;;5088025;28;20032;-84
2021/10/22 09:23:35;;;;;;;4.57;1.73;;;7.50;99.90;;;;;;5087245;28;20043;-85
2021/10/22 09:26:20;;;;;;;5.80;2.38;;;7.50;99.90;;;;;;5090831;28;20763;-85
2021/10/22 09:28:47;;;;;;;3.67;1.58;;;7.50;99.90;;;;;;5053387;28;20021;-84
2021/10/22 09:31:21;;;;;;;7.20;1.63;;;7.50;99.90;;;;;;5069153;28;20086;-86
2021/10/22 09:34:02;;;;;;;4.07;1.05;;;7.50;99.90;;;;;;5067253;28;20027;-85
2021/10/22 09:36:38;;;;;;;5.45;1.30;;;7.50;99.90;;;;;;5074812;28;20072;-84
2021/10/22 09:39:21;;;;;;;6.43;1.00;;;7.60;99.90;;;;;;5093014;28;20032;-86
2021/10/22 09:41:49;;;;;;;5.82;1.08;;;7.60;99.90;;;;;;5084074;28;20037;-86
2021/10/22 09:44:20;;;;;;;6.70;1.40;;;7.60;99.90;;;;;;5081670;28;20702;-85
2021/10/22 09:46:45;;;;;;;1.42;0.70;;;7.60;99.90;;;;;;5074349;28;20487;-82
2021/10/22 09:49:26;;;;;;;9.52;1.25;;;7.60;99.90;;;;;;5091308;28;20041;-85
2021/10/22 09:51:54;;;;;;;2.95;1.23;;;7.60;99.90;;;;;;5050728;28;20032;-85
2021/10/22 09:54:21;;;;;;;5.65;0.90;;;7.60;99.90;;;;;;5050792;28;20536;-85
2021/10/22 09:56:54;;;;;;;1.17;0.80;;;7.50;99.90;;;;;;5067254;28;20028;-85
2021/10/22 09:59:27;;;;;;;4.78;1.30;;;7.50;99.90;;;;;;5082903;28;20020;-83
2021/10/22 10:01:56;;;;;;;9.25;1.33;;;7.50;99.90;;;;;;5071055;28;20485;-86
2021/10/22 10:04:26;;;;;;;6.32;1.20;;;7.50;99.90;;;;;;5071011;28;20028;-85
2021/10/22 10:06:57;;;;;;;4.78;1.20;;;7.50;99.90;;;;;;5079786;28;20036;-84
2021/10/22 10:09:26;;;;;;;3.47;1.45;;;7.60;99.90;;;;;;5080347;28;20020;-84
2021/10/22 10:11:54;;;;;;;3.83;1.58;;;7.50;99.90;;;;;;5070505;28;20078;-86
2021/10/22 10:14:23;;;;;;;8.00;1.77;;;7.50;99.90;;;;;;5070160;28;20497;-84
2021/10/22 10:16:50;;;;;;;2.53;0.90;;;7.50;99.90;;;;;;5076556;28;20141;-83
2021/10/22 10:19:25;;;;;;;1.65;0.80;;;7.50;99.90;;;;;;5086888;28;20570;-85
2021/10/22 10:21:54;;;;;;;3.33;0.90;;;7.50;99.90;;;;;;5069682;28;20031;-84
2021/10/22 10:24:28;;;;;;;1.05;0.75;;;7.50;99.90;;;;;;5069617;28;20501;-83
2021/10/22 10:27:23;;;;;;;2.95;1.02;;;7.50;99.90;;;;;;5070219;28;20012;-84
2021/10/22 10:29:52;;;;;;;3.67;1.17;;;7.60;99.90;;;;;;5088220;28;20028;-85
2021/10/22 10:32:20;;;;;;;3.72;1.33;;;7.70;99.90;;;;;;5086823;28;20055;-84
2021/10/22 10:34:49;;;;;;;3.40;0.60;;;7.70;99.90;;;;;;5088692;28;20031;-85
2021/10/22 10:37:22;;;;;;;2.42;1.00;;;7.80;99.90;;;;;;5084164;28;20623;-82
2021/10/22 10:39:49;;;;;;;2.80;1.08;;;7.80;99.90;;;;;;5096868;28;20032;-84
2021/10/22 10:42:16;;;;;;;4.53;1.02;;;7.80;99.90;;;;;;5091584;28;20028;-85
2021/10/22 10:44:44;;;;;;;1.85;1.15;;;7.70;99.90;;;;;;5091093;28;20078;-85
2021/10/22 10:47:28;;;;;;;1.92;1.20;;;7.70;99.90;;;;;;5090796;28;20369;-83
2021/10/22 10:49:53;;;;;;;3.13;1.23;;;7.70;99.90;;;;;;5089267;28;20035;-83
2021/10/22 10:52:37;;;;;;;3.38;0.70;;;7.70;99.90;;;;;;5071437;28;20024;-85
2021/10/22 10:55:35;;;;;;;3.95;1.00;;;7.70;99.90;;;;;;5051039;28;20393;-83
2021/10/22 10:58:07;;;;;;;2.30;0.90;;;7.80;99.90;;;;;;5057811;28;20040;-84
2021/10/22 11:00:37;;;;;;;3.63;1.13;;;7.80;99.90;;;;;;5067424;28;20560;-84
2021/10/22 11:03:03;;;;;;;6.90;1.20;;;7.80;99.90;;;;;;5072293;28;20016;-84
2021/10/22 11:05:48;;;;;;;4.50;1.38;;;7.90;99.90;;;;;;5070035;28;20017;-82
2021/10/22 11:08:24;;;;;;;4.20;1.25;;;8.00;99.90;;;;;;5069908;28;20627;-83
2021/10/22 11:13:46;;;;;;;2.05;0.65;;;8.20;99.90;;;;;;5072485;28;20028;-82
2021/10/22 11:16:21;;;;;;;4.57;1.10;;;8.20;99.90;;;;;;5075732;22;20132;-48
2021/10/22 11:18:54;;;;;;;2.92;0.73;;;8.30;99.90;;;;;;5048941;28;20029;-49
2021/10/22 11:21:21;;;;;;;2.65;0.60;;;8.30;99.90;;;;;;5048320;28;20037;-52
2021/10/22 11:23:46;;;;;;;3.25;0.70;;;8.40;99.90;;;;;;5047413;28;20520;-49
2021/10/22 11:26:19;;;;;;;4.32;0.80;;;8.40;99.90;;;;;;5048835;28;20025;-51
2021/10/22 11:28:54;;;;;;;3.30;1.02;;;8.40;99.90;;;;;;5053888;28;20025;-51
2021/10/22 11:31:42;;;;;;;3.45;1.35;;;8.30;99.90;;;;;;5057991;28;20033;-50
2021/10/22 11:34:14;;;;;;;3.00;1.25;;;8.30;99.90;;;;;;5067308;28;20538;-49
2021/10/22 11:36:40;;;;;;;1.73;0.95;;;8.30;99.90;;;;;;5068660;28;20553;-48
2021/10/22 11:39:21;;;;;;;3.65;1.25;;;8.20;99.90;;;;;;5068573;28;20384;-50
2021/10/22 11:42:08;;;;;;;1.80;0.50;;;8.10;99.90;;;;;;5067469;28;20063;-48
2021/10/22 11:44:47;;;;;;;5.95;1.20;;;8.10;99.90;;;;;;5068451;28;20047;-50
2021/10/22 11:47:13;;;;;;;4.53;0.40;;;8.00;99.90;;;;;;5068927;28;20690;-51
2021/10/22 11:49:39;;;;;;;2.85;1.20;;;7.90;99.90;;;;;;5067572;28;20021;-49
2021/10/22 11:52:07;;;;;;;3.53;0.80;;;7.90;99.90;;;;;;5068206;28;20025;-48
2021/10/22 11:54:39;;;;;;;4.78;0.88;;;7.80;99.90;;;;;;5068645;28;20511;-48
2021/10/22 11:57:14;;;;;;;6.90;1.05;;;7.70;99.90;;;;;;5068621;28;20493;-48
2021/10/22 12:00:06;;;;;;;6.18;1.20;;;7.70;99.90;;;;;;5064074;28;20039;-53
2021/10/22 12:02:32;;;;;;;2.03;0.75;;;7.70;99.90;;;;;;5065376;28;20039;-51
2021/10/22 12:05:03;;;;;;;3.70;1.40;;;7.70;99.90;;;;;;5066263;28;20507;-49
2021/10/22 12:07:36;;;;;;;2.55;1.00;;;7.70;99.90;;;;;;5068138;28;20484;-47
2021/10/22 12:10:04;;;;;;;2.47;0.50;;;7.70;99.90;;;;;;5067082;28;20108;-47
2021/10/22 12:12:37;;;;;;;6.60;0.80;;;7.60;99.90;;;;;;5065822;28;20568;-51
2021/10/22 12:15:04;;;;;;;3.58;0.80;;;7.60;99.90;;;;;;5068218;28;20040;-50
2021/10/22 12:17:30;;;;;;;2.50;0.88;;;7.50;99.90;;;;;;5067593;28;20112;-50
2021/10/22 12:20:05;;;;;;;5.22;0.82;;;7.50;99.90;;;;;;5060502;28;20074;-51
2021/10/22 12:22:37;;;;;;;7.38;1.30;;;7.50;99.90;;;;;;5047907;28;20492;-50
2021/10/22 12:25:13;;;;;;;2.78;0.82;;;7.50;99.90;;;;;;5048079;28;20083;-47
2021/10/22 12:27:39;;;;;;;;;;;7.50;99.90;;;;;;5066025;28;20212;-47
2021/10/22 12:30:08;;;;;;;3.73;1.07;;;7.50;99.90;;;;;;5067674;28;19912;-48
2021/10/22 12:32:40;;;;;;;7.97;1.63;;;7.50;99.90;;;;;;5066277;28;20024;-46
2021/10/22 12:35:15;;;;;;;6.45;0.73;;;7.60;99.90;;;;;;5067817;28;20043;-51
2021/10/22 12:38:00;;;;;;;3.08;0.55;;;7.60;99.90;;;;;;5091675;22;20432;-50
2021/10/22 12:40:35;;;;;;;5.45;0.93;;;7.60;99.90;;;;;;5072645;28;20039;-48
2021/10/22 12:43:10;;;;;;;3.60;0.82;;;7.50;99.90;;;;;;5047834;28;20021;-52
2021/10/22 12:45:42;;;;;;;3.42;0.93;;;7.50;99.90;;;;;;5053858;28;20024;-51
2021/10/22 12:48:09;;;;;;;4.53;1.05;;;7.50;99.90;;;;;;5067708;28;20547;-49
2021/10/22 12:50:37;;;;;;;5.40;1.80;;;7.50;99.90;;;;;;5067290;28;20449;-50
2021/10/22 12:53:09;;;;;;;1.65;0.70;;;7.60;99.90;;;;;;5066733;28;20073;-49
2021/10/22 12:55:36;;;;;;;2.15;0.80;;;7.60;99.90;;;;;;5067599;28;20063;-49
2021/10/22 12:58:28;;;;;;;11.07;1.40;;;7.70;99.90;;;;;;5067803;28;20116;-50
2021/10/22 13:01:06;;;;;;;3.42;1.20;;;7.70;99.90;;;;;;5067195;28;20036;-49
2021/10/22 13:03:32;;;;;;;2.75;0.80;;;7.80;99.90;;;;;;5071634;28;20476;-49
2021/10/22 13:06:41;;;;;;;4.55;1.23;;;7.80;99.90;;;;;;5070717;28;20028;-48
2021/10/22 13:23:07;;;;;;;4.95;1.58;;;7.90;99.90;;;;;;5027221;28;20094;-50
2021/10/22 13:25:33;;;;;;;4.53;0.98;;;8.00;99.90;;;;;;5051287;28;20048;-50